sensor_id;sensor_type;location;lat;lon;timestamp;P1;durP1;ratioP1;P2;durP2;ratioP2
43676;SDS011;29275;48.800;18.102;2023-04-25T00:00:20;3.15;;;2.00;;
43676;SDS011;29275;48.800;18.102;2023-04-25T00:03:23;4.10;;;2.22;;
43676;SDS011;29275;48.800;18.102;2023-04-25T00:06:28;4.22;;;2.40;;
43676;SDS011;29275;48.800;18.102;2023-04-25T00:09:32;5.10;;;2.45;;
43676;SDS011;29275;48.800;18.102;2023-04-25T00:12:35;4.47;;;2.50;;
43676;SDS011;29275;48.800;18.102;2023-04-25T00:15:39;3.55;;;2.45;;
43676;SDS011;29275;48.800;18.102;2023-04-25T00:18:43;4.97;;;2.50;;
43676;SDS011;29275;48.800;18.102;2023-04-25T00:21:48;3.40;;;2.30;;
43676;SDS011;29275;48.800;18.102;2023-04-25T00:24:51;3.55;;;1.95;;
43676;SDS011;29275;48.800;18.102;2023-04-25T00:27:55;4.55;;;2.80;;
43676;SDS011;29275;48.800;18.102;2023-04-25T00:30:58;4.70;;;3.15;;
43676;SDS011;29275;48.800;18.102;2023-04-25T00:34:01;5.18;;;2.63;;
43676;SDS011;29275;48.800;18.102;2023-04-25T00:37:04;4.13;;;2.90;;
43676;SDS011;29275;48.800;18.102;2023-04-25T00:40:11;4.20;;;2.90;;
43676;SDS011;29275;48.800;18.102;2023-04-25T00:43:14;3.50;;;2.20;;
43676;SDS011;29275;48.800;18.102;2023-04-25T00:46:18;5.22;;;3.05;;
43676;SDS011;29275;48.800;18.102;2023-04-25T00:49:22;3.83;;;2.53;;
43676;SDS011;29275;48.800;18.102;2023-04-25T00:52:24;4.68;;;2.40;;
43676;SDS011;29275;48.800;18.102;2023-04-25T00:55:27;3.80;;;2.45;;
43676;SDS011;29275;48.800;18.102;2023-04-25T00:58:30;4.90;;;2.75;;
43676;SDS011;29275;48.800;18.102;2023-04-25T01:01:33;6.38;;;3.25;;
43676;SDS011;29275;48.800;18.102;2023-04-25T01:04:36;5.65;;;3.15;;
43676;SDS011;29275;48.800;18.102;2023-04-25T01:07:39;3.88;;;2.70;;
43676;SDS011;29275;48.800;18.102;2023-04-25T01:10:43;4.03;;;2.85;;
43676;SDS011;29275;48.800;18.102;2023-04-25T01:13:46;6.00;;;4.03;;
43676;SDS011;29275;48.800;18.102;2023-04-25T01:16:48;4.47;;;3.22;;
43676;SDS011;29275;48.800;18.102;2023-04-25T01:19:51;5.15;;;3.50;;
43676;SDS011;29275;48.800;18.102;2023-04-25T01:22:56;5.07;;;3.53;;
43676;SDS011;29275;48.800;18.102;2023-04-25T01:25:59;4.95;;;3.50;;
43676;SDS011;29275;48.800;18.102;2023-04-25T01:29:04;4.82;;;3.95;;
43676;SDS011;29275;48.800;18.102;2023-04-25T01:32:07;8.73;;;4.18;;
43676;SDS011;29275;48.800;18.102;2023-04-25T01:35:10;6.28;;;3.75;;
43676;SDS011;29275;48.800;18.102;2023-04-25T01:38:14;7.63;;;4.80;;
43676;SDS011;29275;48.800;18.102;2023-04-25T01:41:17;5.90;;;4.50;;
43676;SDS011;29275;48.800;18.102;2023-04-25T01:44:20;5.65;;;4.30;;
43676;SDS011;29275;48.800;18.102;2023-04-25T01:47:23;4.72;;;3.35;;
43676;SDS011;29275;48.800;18.102;2023-04-25T01:50:26;5.93;;;3.40;;
43676;SDS011;29275;48.800;18.102;2023-04-25T01:53:28;5.38;;;3.35;;
43676;SDS011;29275;48.800;18.102;2023-04-25T01:56:32;5.72;;;3.60;;
43676;SDS011;29275;48.800;18.102;2023-04-25T01:59:36;5.50;;;3.97;;
43676;SDS011;29275;48.800;18.102;2023-04-25T02:03:00;5.57;;;4.07;;
43676;SDS011;29275;48.800;18.102;2023-04-25T02:06:06;6.95;;;4.40;;
43676;SDS011;29275;48.800;18.102;2023-04-25T02:09:13;5.70;;;3.73;;
43676;SDS011;29275;48.800;18.102;2023-04-25T02:12:23;6.70;;;3.95;;
43676;SDS011;29275;48.800;18.102;2023-04-25T02:15:28;5.70;;;3.90;;
43676;SDS011;29275;48.800;18.102;2023-04-25T02:18:37;6.93;;;3.88;;
43676;SDS011;29275;48.800;18.102;2023-04-25T02:21:41;5.68;;;3.88;;
43676;SDS011;29275;48.800;18.102;2023-04-25T02:24:46;5.80;;;4.03;;
43676;SDS011;29275;48.800;18.102;2023-04-25T02:27:49;5.13;;;3.60;;
43676;SDS011;29275;48.800;18.102;2023-04-25T02:30:52;6.18;;;4.22;;
43676;SDS011;29275;48.800;18.102;2023-04-25T02:33:55;7.78;;;4.07;;
43676;SDS011;29275;48.800;18.102;2023-04-25T02:36:58;5.50;;;3.65;;
43676;SDS011;29275;48.800;18.102;2023-04-25T02:40:01;4.35;;;3.20;;
43676;SDS011;29275;48.800;18.102;2023-04-25T02:43:06;4.75;;;3.10;;
43676;SDS011;29275;48.800;18.102;2023-04-25T02:46:09;4.80;;;3.03;;
43676;SDS011;29275;48.800;18.102;2023-04-25T02:49:14;4.35;;;3.22;;
43676;SDS011;29275;48.800;18.102;2023-04-25T02:52:17;4.85;;;3.53;;
43676;SDS011;29275;48.800;18.102;2023-04-25T02:55:27;5.95;;;3.67;;
43676;SDS011;29275;48.800;18.102;2023-04-25T02:58:31;5.38;;;3.60;;
43676;SDS011;29275;48.800;18.102;2023-04-25T03:01:34;4.75;;;3.40;;
43676;SDS011;29275;48.800;18.102;2023-04-25T03:04:37;5.82;;;3.63;;
43676;SDS011;29275;48.800;18.102;2023-04-25T03:07:40;6.07;;;4.00;;
43676;SDS011;29275;48.800;18.102;2023-04-25T03:10:45;6.93;;;4.60;;
43676;SDS011;29275;48.800;18.102;2023-04-25T03:13:52;5.90;;;4.03;;
43676;SDS011;29275;48.800;18.102;2023-04-25T03:16:55;8.02;;;4.55;;
43676;SDS011;29275;48.800;18.102;2023-04-25T03:20:00;7.13;;;4.57;;
43676;SDS011;29275;48.800;18.102;2023-04-25T03:23:03;6.53;;;4.57;;
43676;SDS011;29275;48.800;18.102;2023-04-25T03:26:06;6.57;;;4.57;;
43676;SDS011;29275;48.800;18.102;2023-04-25T03:29:09;9.82;;;5.38;;
43676;SDS011;29275;48.800;18.102;2023-04-25T03:32:13;7.15;;;4.80;;
43676;SDS011;29275;48.800;18.102;2023-04-25T03:35:16;7.38;;;5.63;;
43676;SDS011;29275;48.800;18.102;2023-04-25T03:38:19;7.10;;;4.93;;
43676;SDS011;29275;48.800;18.102;2023-04-25T03:41:22;9.27;;;5.75;;
43676;SDS011;29275;48.800;18.102;2023-04-25T03:44:29;8.38;;;5.15;;
43676;SDS011;29275;48.800;18.102;2023-04-25T03:47:33;7.68;;;5.07;;
43676;SDS011;29275;48.800;18.102;2023-04-25T03:50:36;6.65;;;4.88;;
43676;SDS011;29275;48.800;18.102;2023-04-25T03:53:40;8.68;;;5.03;;
43676;SDS011;29275;48.800;18.102;2023-04-25T03:57:12;7.50;;;4.65;;
43676;SDS011;29275;48.800;18.102;2023-04-25T04:00:17;6.70;;;4.32;;
43676;SDS011;29275;48.800;18.102;2023-04-25T04:03:19;5.90;;;4.22;;
43676;SDS011;29275;48.800;18.102;2023-04-25T04:06:24;5.15;;;3.97;;
43676;SDS011;29275;48.800;18.102;2023-04-25T04:09:36;7.35;;;4.47;;
43676;SDS011;29275;48.800;18.102;2023-04-25T04:15:46;6.10;;;4.20;;
43676;SDS011;29275;48.800;18.102;2023-04-25T04:18:50;9.88;;;4.40;;
43676;SDS011;29275;48.800;18.102;2023-04-25T04:21:52;6.28;;;4.53;;
43676;SDS011;29275;48.800;18.102;2023-04-25T04:24:55;5.70;;;3.88;;
43676;SDS011;29275;48.800;18.102;2023-04-25T04:28:17;6.88;;;5.00;;
43676;SDS011;29275;48.800;18.102;2023-04-25T04:31:34;5.28;;;3.80;;
43676;SDS011;29275;48.800;18.102;2023-04-25T04:34:37;5.88;;;4.20;;
43676;SDS011;29275;48.800;18.102;2023-04-25T04:37:42;7.13;;;4.60;;
43676;SDS011;29275;48.800;18.102;2023-04-25T04:40:47;4.88;;;3.90;;
43676;SDS011;29275;48.800;18.102;2023-04-25T04:44:13;6.47;;;4.30;;
43676;SDS011;29275;48.800;18.102;2023-04-25T04:47:20;6.85;;;4.43;;
43676;SDS011;29275;48.800;18.102;2023-04-25T04:50:37;5.60;;;3.95;;
43676;SDS011;29275;48.800;18.102;2023-04-25T04:53:53;8.68;;;4.57;;
43676;SDS011;29275;48.800;18.102;2023-04-25T04:57:23;6.15;;;3.90;;
43676;SDS011;29275;48.800;18.102;2023-04-25T05:00:46;7.68;;;3.95;;
43676;SDS011;29275;48.800;18.102;2023-04-25T05:04:19;7.43;;;4.93;;
43676;SDS011;29275;48.800;18.102;2023-04-25T05:07:41;8.45;;;5.13;;
43676;SDS011;29275;48.800;18.102;2023-04-25T05:11:19;13.27;;;4.95;;
43676;SDS011;29275;48.800;18.102;2023-04-25T05:14:58;9.93;;;5.05;;
43676;SDS011;29275;48.800;18.102;2023-04-25T05:18:04;10.93;;;5.50;;
43676;SDS011;29275;48.800;18.102;2023-04-25T05:21:27;10.63;;;5.88;;
43676;SDS011;29275;48.800;18.102;2023-04-25T05:24:53;6.60;;;4.57;;
43676;SDS011;29275;48.800;18.102;2023-04-25T05:28:05;5.72;;;4.32;;
43676;SDS011;29275;48.800;18.102;2023-04-25T05:31:27;9.00;;;5.68;;
43676;SDS011;29275;48.800;18.102;2023-04-25T05:34:35;9.13;;;5.13;;
43676;SDS011;29275;48.800;18.102;2023-04-25T05:37:42;7.15;;;4.97;;
43676;SDS011;29275;48.800;18.102;2023-04-25T05:40:47;5.65;;;3.75;;
43676;SDS011;29275;48.800;18.102;2023-04-25T05:44:12;6.47;;;4.75;;
43676;SDS011;29275;48.800;18.102;2023-04-25T05:47:35;6.22;;;4.55;;
43676;SDS011;29275;48.800;18.102;2023-04-25T05:50:43;7.55;;;5.35;;
43676;SDS011;29275;48.800;18.102;2023-04-25T05:54:05;7.00;;;4.55;;
43676;SDS011;29275;48.800;18.102;2023-04-25T05:57:14;6.55;;;4.95;;
43676;SDS011;29275;48.800;18.102;2023-04-25T06:00:22;8.27;;;6.13;;
43676;SDS011;29275;48.800;18.102;2023-04-25T06:03:26;7.15;;;5.13;;
43676;SDS011;29275;48.800;18.102;2023-04-25T06:06:32;7.05;;;5.20;;
43676;SDS011;29275;48.800;18.102;2023-04-25T06:09:35;6.70;;;5.05;;
43676;SDS011;29275;48.800;18.102;2023-04-25T06:12:37;6.13;;;4.65;;
43676;SDS011;29275;48.800;18.102;2023-04-25T06:15:40;5.45;;;3.83;;
43676;SDS011;29275;48.800;18.102;2023-04-25T06:18:43;5.55;;;3.50;;
43676;SDS011;29275;48.800;18.102;2023-04-25T06:21:47;5.55;;;2.72;;
43676;SDS011;29275;48.800;18.102;2023-04-25T06:24:50;3.83;;;2.95;;
43676;SDS011;29275;48.800;18.102;2023-04-25T06:27:53;3.40;;;2.00;;
43676;SDS011;29275;48.800;18.102;2023-04-25T06:30:56;3.72;;;2.42;;
43676;SDS011;29275;48.800;18.102;2023-04-25T06:33:59;3.58;;;2.17;;
43676;SDS011;29275;48.800;18.102;2023-04-25T06:37:05;4.13;;;2.60;;
43676;SDS011;29275;48.800;18.102;2023-04-25T06:40:08;3.75;;;2.25;;
43676;SDS011;29275;48.800;18.102;2023-04-25T06:43:11;5.15;;;2.00;;
43676;SDS011;29275;48.800;18.102;2023-04-25T06:46:29;6.10;;;3.55;;
43676;SDS011;29275;48.800;18.102;2023-04-25T06:49:33;2.67;;;1.90;;
43676;SDS011;29275;48.800;18.102;2023-04-25T06:52:37;3.75;;;2.50;;
43676;SDS011;29275;48.800;18.102;2023-04-25T06:55:40;3.20;;;2.17;;
43676;SDS011;29275;48.800;18.102;2023-04-25T06:58:54;6.93;;;4.00;;
43676;SDS011;29275;48.800;18.102;2023-04-25T07:02:18;5.72;;;3.17;;
43676;SDS011;29275;48.800;18.102;2023-04-25T07:05:21;4.50;;;2.72;;
43676;SDS011;29275;48.800;18.102;2023-04-25T07:08:24;4.28;;;3.00;;
43676;SDS011;29275;48.800;18.102;2023-04-25T07:11:27;2.08;;;1.35;;
43676;SDS011;29275;48.800;18.102;2023-04-25T07:14:31;2.58;;;1.35;;
43676;SDS011;29275;48.800;18.102;2023-04-25T07:17:34;7.90;;;4.70;;
43676;SDS011;29275;48.800;18.102;2023-04-25T07:20:37;7.15;;;3.45;;
43676;SDS011;29275;48.800;18.102;2023-04-25T07:23:41;1.77;;;1.10;;
43676;SDS011;29275;48.800;18.102;2023-04-25T07:26:49;2.55;;;1.30;;
43676;SDS011;29275;48.800;18.102;2023-04-25T07:30:09;3.05;;;1.33;;
43676;SDS011;29275;48.800;18.102;2023-04-25T07:33:13;2.65;;;0.90;;
43676;SDS011;29275;48.800;18.102;2023-04-25T07:36:17;2.40;;;1.60;;
43676;SDS011;29275;48.800;18.102;2023-04-25T07:39:20;5.03;;;1.25;;
43676;SDS011;29275;48.800;18.102;2023-04-25T07:42:24;2.42;;;1.42;;
43676;SDS011;29275;48.800;18.102;2023-04-25T07:45:28;3.58;;;2.15;;
43676;SDS011;29275;48.800;18.102;2023-04-25T07:48:33;3.13;;;0.95;;
43676;SDS011;29275;48.800;18.102;2023-04-25T07:51:37;1.95;;;0.80;;
43676;SDS011;29275;48.800;18.102;2023-04-25T07:54:45;5.13;;;0.75;;
43676;SDS011;29275;48.800;18.102;2023-04-25T07:57:53;2.30;;;1.10;;
43676;SDS011;29275;48.800;18.102;2023-04-25T08:00:56;3.70;;;1.60;;
43676;SDS011;29275;48.800;18.102;2023-04-25T08:04:19;1.90;;;0.77;;
43676;SDS011;29275;48.800;18.102;2023-04-25T08:07:27;1.20;;;0.82;;
43676;SDS011;29275;48.800;18.102;2023-04-25T08:10:36;3.03;;;0.82;;
43676;SDS011;29275;48.800;18.102;2023-04-25T08:13:39;1.75;;;0.80;;
43676;SDS011;29275;48.800;18.102;2023-04-25T08:16:42;3.83;;;1.00;;
43676;SDS011;29275;48.800;18.102;2023-04-25T08:19:45;4.55;;;0.95;;
43676;SDS011;29275;48.800;18.102;2023-04-25T08:22:57;1.80;;;0.93;;
43676;SDS011;29275;48.800;18.102;2023-04-25T08:26:16;1.20;;;0.80;;
43676;SDS011;29275;48.800;18.102;2023-04-25T08:29:22;2.72;;;1.45;;
43676;SDS011;29275;48.800;18.102;2023-04-25T08:32:27;3.63;;;1.10;;
43676;SDS011;29275;48.800;18.102;2023-04-25T08:35:55;1.80;;;1.00;;
43676;SDS011;29275;48.800;18.102;2023-04-25T08:38:59;4.63;;;1.45;;
43676;SDS011;29275;48.800;18.102;2023-04-25T08:42:04;3.78;;;1.38;;
43676;SDS011;29275;48.800;18.102;2023-04-25T08:45:10;4.65;;;1.33;;
43676;SDS011;29275;48.800;18.102;2023-04-25T08:48:16;2.42;;;1.23;;
43676;SDS011;29275;48.800;18.102;2023-04-25T08:51:23;2.58;;;1.35;;
43676;SDS011;29275;48.800;18.102;2023-04-25T08:54:27;1.73;;;0.82;;
43676;SDS011;29275;48.800;18.102;2023-04-25T08:57:37;5.97;;;1.25;;
43676;SDS011;29275;48.800;18.102;2023-04-25T09:00:42;2.58;;;1.23;;
43676;SDS011;29275;48.800;18.102;2023-04-25T09:03:45;2.45;;;1.40;;
43676;SDS011;29275;48.800;18.102;2023-04-25T09:06:50;2.28;;;1.15;;
43676;SDS011;29275;48.800;18.102;2023-04-25T09:09:53;4.25;;;1.25;;
43676;SDS011;29275;48.800;18.102;2023-04-25T09:16:13;4.03;;;1.00;;
43676;SDS011;29275;48.800;18.102;2023-04-25T09:19:41;4.43;;;1.25;;
43676;SDS011;29275;48.800;18.102;2023-04-25T09:23:01;2.65;;;1.55;;
43676;SDS011;29275;48.800;18.102;2023-04-25T09:26:10;1.90;;;1.20;;
43676;SDS011;29275;48.800;18.102;2023-04-25T09:29:24;2.83;;;1.35;;
43676;SDS011;29275;48.800;18.102;2023-04-25T09:32:32;2.28;;;1.48;;
43676;SDS011;29275;48.800;18.102;2023-04-25T09:35:40;3.65;;;1.52;;
43676;SDS011;29275;48.800;18.102;2023-04-25T09:38:52;2.92;;;1.40;;
43676;SDS011;29275;48.800;18.102;2023-04-25T09:42:03;2.58;;;1.38;;
43676;SDS011;29275;48.800;18.102;2023-04-25T09:45:06;3.10;;;1.58;;
43676;SDS011;29275;48.800;18.102;2023-04-25T09:48:18;4.28;;;2.47;;
43676;SDS011;29275;48.800;18.102;2023-04-25T09:51:25;3.65;;;1.88;;
43676;SDS011;29275;48.800;18.102;2023-04-25T09:57:59;3.40;;;1.73;;
43676;SDS011;29275;48.800;18.102;2023-04-25T10:01:07;4.70;;;1.85;;
43676;SDS011;29275;48.800;18.102;2023-04-25T10:04:26;5.07;;;1.80;;
43676;SDS011;29275;48.800;18.102;2023-04-25T10:07:38;3.00;;;1.88;;
43676;SDS011;29275;48.800;18.102;2023-04-25T10:10:46;3.33;;;1.98;;
43676;SDS011;29275;48.800;18.102;2023-04-25T10:13:49;3.22;;;1.60;;
43676;SDS011;29275;48.800;18.102;2023-04-25T10:16:53;2.40;;;1.73;;
43676;SDS011;29275;48.800;18.102;2023-04-25T10:19:57;3.05;;;1.67;;
43676;SDS011;29275;48.800;18.102;2023-04-25T10:23:15;2.75;;;1.70;;
43676;SDS011;29275;48.800;18.102;2023-04-25T10:26:19;2.90;;;1.90;;
43676;SDS011;29275;48.800;18.102;2023-04-25T10:29:25;4.13;;;2.15;;
43676;SDS011;29275;48.800;18.102;2023-04-25T10:32:30;4.10;;;1.70;;
43676;SDS011;29275;48.800;18.102;2023-04-25T10:35:33;2.88;;;1.52;;
43676;SDS011;29275;48.800;18.102;2023-04-25T10:38:37;2.78;;;1.75;;
43676;SDS011;29275;48.800;18.102;2023-04-25T10:41:47;8.55;;;2.30;;
43676;SDS011;29275;48.800;18.102;2023-04-25T10:45:07;2.75;;;1.70;;
43676;SDS011;29275;48.800;18.102;2023-04-25T10:48:28;2.63;;;1.60;;
43676;SDS011;29275;48.800;18.102;2023-04-25T10:51:32;3.40;;;2.10;;
43676;SDS011;29275;48.800;18.102;2023-04-25T10:54:56;8.18;;;4.00;;
43676;SDS011;29275;48.800;18.102;2023-04-25T10:57:59;5.35;;;2.95;;
43676;SDS011;29275;48.800;18.102;2023-04-25T11:01:03;3.30;;;1.75;;
43676;SDS011;29275;48.800;18.102;2023-04-25T11:04:06;4.43;;;1.80;;
43676;SDS011;29275;48.800;18.102;2023-04-25T11:10:17;7.85;;;2.20;;
43676;SDS011;29275;48.800;18.102;2023-04-25T11:13:22;4.55;;;1.90;;
43676;SDS011;29275;48.800;18.102;2023-04-25T11:16:33;3.22;;;2.10;;
43676;SDS011;29275;48.800;18.102;2023-04-25T11:19:36;4.03;;;2.13;;
43676;SDS011;29275;48.800;18.102;2023-04-25T11:22:39;6.30;;;2.08;;
43676;SDS011;29275;48.800;18.102;2023-04-25T11:25:44;4.68;;;2.13;;
43676;SDS011;29275;48.800;18.102;2023-04-25T11:28:48;4.57;;;2.00;;
43676;SDS011;29275;48.800;18.102;2023-04-25T11:31:56;6.25;;;1.80;;
43676;SDS011;29275;48.800;18.102;2023-04-25T11:35:04;4.60;;;2.10;;
43676;SDS011;29275;48.800;18.102;2023-04-25T11:38:11;3.28;;;1.80;;
43676;SDS011;29275;48.800;18.102;2023-04-25T11:41:14;4.28;;;2.50;;
43676;SDS011;29275;48.800;18.102;2023-04-25T11:44:19;3.97;;;1.67;;
43676;SDS011;29275;48.800;18.102;2023-04-25T11:47:27;4.22;;;2.00;;
43676;SDS011;29275;48.800;18.102;2023-04-25T11:50:33;4.40;;;2.30;;
43676;SDS011;29275;48.800;18.102;2023-04-25T11:53:36;2.55;;;2.00;;
43676;SDS011;29275;48.800;18.102;2023-04-25T11:59:47;3.40;;;2.20;;
43676;SDS011;29275;48.800;18.102;2023-04-25T12:02:53;5.88;;;1.70;;
43676;SDS011;29275;48.800;18.102;2023-04-25T12:06:02;7.72;;;1.90;;
43676;SDS011;29275;48.800;18.102;2023-04-25T12:09:10;2.80;;;1.67;;
43676;SDS011;29275;48.800;18.102;2023-04-25T12:12:15;2.92;;;1.90;;
43676;SDS011;29275;48.800;18.102;2023-04-25T12:15:22;2.78;;;1.88;;
43676;SDS011;29275;48.800;18.102;2023-04-25T12:18:26;9.38;;;2.40;;
43676;SDS011;29275;48.800;18.102;2023-04-25T12:21:30;3.58;;;2.63;;
43676;SDS011;29275;48.800;18.102;2023-04-25T12:24:39;3.28;;;2.00;;
43676;SDS011;29275;48.800;18.102;2023-04-25T12:27:42;5.38;;;2.30;;
43676;SDS011;29275;48.800;18.102;2023-04-25T12:30:56;4.25;;;2.35;;
43676;SDS011;29275;48.800;18.102;2023-04-25T12:34:06;5.55;;;2.22;;
43676;SDS011;29275;48.800;18.102;2023-04-25T12:37:10;2.83;;;1.95;;
43676;SDS011;29275;48.800;18.102;2023-04-25T12:40:13;5.55;;;2.10;;
43676;SDS011;29275;48.800;18.102;2023-04-25T12:43:16;3.65;;;1.95;;
43676;SDS011;29275;48.800;18.102;2023-04-25T12:46:20;2.55;;;1.73;;
43676;SDS011;29275;48.800;18.102;2023-04-25T12:49:23;2.60;;;1.70;;
43676;SDS011;29275;48.800;18.102;2023-04-25T12:52:25;2.83;;;1.92;;
43676;SDS011;29275;48.800;18.102;2023-04-25T12:55:29;3.08;;;1.85;;
43676;SDS011;29275;48.800;18.102;2023-04-25T12:58:34;3.75;;;1.17;;
43676;SDS011;29275;48.800;18.102;2023-04-25T13:01:37;2.60;;;1.50;;
43676;SDS011;29275;48.800;18.102;2023-04-25T13:04:41;3.00;;;1.95;;
43676;SDS011;29275;48.800;18.102;2023-04-25T13:07:44;4.55;;;1.85;;
43676;SDS011;29275;48.800;18.102;2023-04-25T13:10:48;2.30;;;1.65;;
43676;SDS011;29275;48.800;18.102;2023-04-25T13:13:50;3.30;;;1.83;;
43676;SDS011;29275;48.800;18.102;2023-04-25T13:16:54;3.45;;;1.45;;
43676;SDS011;29275;48.800;18.102;2023-04-25T13:19:57;2.60;;;1.75;;
43676;SDS011;29275;48.800;18.102;2023-04-25T13:23:00;2.47;;;1.75;;
43676;SDS011;29275;48.800;18.102;2023-04-25T13:26:04;3.30;;;1.70;;
43676;SDS011;29275;48.800;18.102;2023-04-25T13:29:10;3.42;;;1.80;;
43676;SDS011;29275;48.800;18.102;2023-04-25T13:32:13;2.83;;;1.35;;
43676;SDS011;29275;48.800;18.102;2023-04-25T13:35:16;2.15;;;1.55;;
43676;SDS011;29275;48.800;18.102;2023-04-25T13:38:20;3.20;;;1.83;;
43676;SDS011;29275;48.800;18.102;2023-04-25T13:41:23;4.22;;;1.58;;
43676;SDS011;29275;48.800;18.102;2023-04-25T13:44:26;4.50;;;1.80;;
43676;SDS011;29275;48.800;18.102;2023-04-25T13:47:29;3.17;;;1.88;;
43676;SDS011;29275;48.800;18.102;2023-04-25T13:50:33;2.97;;;1.80;;
43676;SDS011;29275;48.800;18.102;2023-04-25T13:53:36;3.90;;;2.22;;
43676;SDS011;29275;48.800;18.102;2023-04-25T13:56:39;4.15;;;1.70;;
43676;SDS011;29275;48.800;18.102;2023-04-25T13:59:47;16.08;;;6.25;;
43676;SDS011;29275;48.800;18.102;2023-04-25T14:02:50;6.90;;;2.65;;
43676;SDS011;29275;48.800;18.102;2023-04-25T14:05:54;2.65;;;1.50;;
43676;SDS011;29275;48.800;18.102;2023-04-25T14:08:57;2.13;;;1.23;;
43676;SDS011;29275;48.800;18.102;2023-04-25T14:12:03;3.50;;;1.30;;
43676;SDS011;29275;48.800;18.102;2023-04-25T14:15:06;13.02;;;5.30;;
43676;SDS011;29275;48.800;18.102;2023-04-25T14:18:09;4.43;;;2.00;;
43676;SDS011;29275;48.800;18.102;2023-04-25T14:21:12;2.33;;;1.60;;
43676;SDS011;29275;48.800;18.102;2023-04-25T14:24:15;2.85;;;1.58;;
43676;SDS011;29275;48.800;18.102;2023-04-25T14:27:18;3.88;;;1.95;;
43676;SDS011;29275;48.800;18.102;2023-04-25T14:30:21;3.70;;;1.70;;
43676;SDS011;29275;48.800;18.102;2023-04-25T14:33:24;2.65;;;1.60;;
43676;SDS011;29275;48.800;18.102;2023-04-25T14:36:30;3.03;;;1.95;;
43676;SDS011;29275;48.800;18.102;2023-04-25T14:39:34;3.25;;;1.45;;
43676;SDS011;29275;48.800;18.102;2023-04-25T14:42:37;1.77;;;1.25;;
43676;SDS011;29275;48.800;18.102;2023-04-25T14:45:40;1.73;;;1.15;;
43676;SDS011;29275;48.800;18.102;2023-04-25T14:48:43;1.95;;;1.10;;
43676;SDS011;29275;48.800;18.102;2023-04-25T14:51:46;3.92;;;1.92;;
43676;SDS011;29275;48.800;18.102;2023-04-25T14:54:52;2.67;;;1.50;;
43676;SDS011;29275;48.800;18.102;2023-04-25T14:57:55;3.40;;;1.88;;
43676;SDS011;29275;48.800;18.102;2023-04-25T15:00:59;2.00;;;1.30;;
43676;SDS011;29275;48.800;18.102;2023-04-25T15:04:02;4.68;;;1.63;;
43676;SDS011;29275;48.800;18.102;2023-04-25T15:07:06;2.28;;;1.50;;
43676;SDS011;29275;48.800;18.102;2023-04-25T15:10:09;6.05;;;2.58;;
43676;SDS011;29275;48.800;18.102;2023-04-25T15:13:18;2.60;;;1.85;;
43676;SDS011;29275;48.800;18.102;2023-04-25T15:16:21;1.67;;;1.20;;
43676;SDS011;29275;48.800;18.102;2023-04-25T15:19:24;4.15;;;1.50;;
43676;SDS011;29275;48.800;18.102;2023-04-25T15:22:27;3.92;;;1.50;;
43676;SDS011;29275;48.800;18.102;2023-04-25T15:25:30;2.83;;;1.52;;
43676;SDS011;29275;48.800;18.102;2023-04-25T15:28:33;2.70;;;1.60;;
43676;SDS011;29275;48.800;18.102;2023-04-25T15:31:36;3.22;;;1.70;;
43676;SDS011;29275;48.800;18.102;2023-04-25T15:34:39;2.10;;;1.45;;
43676;SDS011;29275;48.800;18.102;2023-04-25T15:37:42;3.47;;;1.40;;
43676;SDS011;29275;48.800;18.102;2023-04-25T15:40:45;2.72;;;1.73;;
43676;SDS011;29275;48.800;18.102;2023-04-25T15:43:47;5.25;;;2.13;;
43676;SDS011;29275;48.800;18.102;2023-04-25T15:46:51;2.80;;;1.52;;
43676;SDS011;29275;48.800;18.102;2023-04-25T15:49:56;5.15;;;2.10;;
43676;SDS011;29275;48.800;18.102;2023-04-25T15:52:59;2.65;;;1.48;;
43676;SDS011;29275;48.800;18.102;2023-04-25T15:56:02;3.15;;;1.48;;
43676;SDS011;29275;48.800;18.102;2023-04-25T15:59:05;5.05;;;1.30;;
43676;SDS011;29275;48.800;18.102;2023-04-25T16:02:09;2.67;;;1.45;;
43676;SDS011;29275;48.800;18.102;2023-04-25T16:05:12;4.55;;;1.70;;
43676;SDS011;29275;48.800;18.102;2023-04-25T16:08:16;4.07;;;2.20;;
43676;SDS011;29275;48.800;18.102;2023-04-25T16:11:19;2.50;;;1.88;;
43676;SDS011;29275;48.800;18.102;2023-04-25T16:14:23;5.03;;;2.15;;
43676;SDS011;29275;48.800;18.102;2023-04-25T16:17:26;3.67;;;1.65;;
43676;SDS011;29275;48.800;18.102;2023-04-25T16:20:31;4.20;;;1.77;;
43676;SDS011;29275;48.800;18.102;2023-04-25T16:23:34;2.90;;;1.70;;
43676;SDS011;29275;48.800;18.102;2023-04-25T16:26:37;3.08;;;2.47;;
43676;SDS011;29275;48.800;18.102;2023-04-25T16:29:42;2.88;;;1.40;;
43676;SDS011;29275;48.800;18.102;2023-04-25T16:32:45;2.28;;;1.58;;
43676;SDS011;29275;48.800;18.102;2023-04-25T16:35:48;4.32;;;2.40;;
43676;SDS011;29275;48.800;18.102;2023-04-25T16:38:52;5.30;;;2.40;;
43676;SDS011;29275;48.800;18.102;2023-04-25T16:41:55;3.30;;;2.05;;
43676;SDS011;29275;48.800;18.102;2023-04-25T16:44:58;6.50;;;2.33;;
43676;SDS011;29275;48.800;18.102;2023-04-25T16:48:02;3.92;;;2.20;;
43676;SDS011;29275;48.800;18.102;2023-04-25T16:51:05;10.85;;;5.55;;
43676;SDS011;29275;48.800;18.102;2023-04-25T16:54:07;5.45;;;2.38;;
43676;SDS011;29275;48.800;18.102;2023-04-25T16:57:10;2.33;;;1.67;;
43676;SDS011;29275;48.800;18.102;2023-04-25T17:00:18;2.92;;;1.92;;
43676;SDS011;29275;48.800;18.102;2023-04-25T17:03:21;2.80;;;1.52;;
43676;SDS011;29275;48.800;18.102;2023-04-25T17:06:25;3.08;;;1.63;;
43676;SDS011;29275;48.800;18.102;2023-04-25T17:09:28;5.72;;;1.85;;
43676;SDS011;29275;48.800;18.102;2023-04-25T17:12:32;4.60;;;1.70;;
43676;SDS011;29275;48.800;18.102;2023-04-25T17:15:35;2.28;;;1.55;;
43676;SDS011;29275;48.800;18.102;2023-04-25T17:18:38;3.88;;;1.45;;
43676;SDS011;29275;48.800;18.102;2023-04-25T17:21:40;3.50;;;1.42;;
43676;SDS011;29275;48.800;18.102;2023-04-25T17:24:43;3.40;;;2.17;;
43676;SDS011;29275;48.800;18.102;2023-04-25T17:27:47;11.15;;;4.70;;
43676;SDS011;29275;48.800;18.102;2023-04-25T17:30:50;4.35;;;2.50;;
43676;SDS011;29275;48.800;18.102;2023-04-25T17:33:53;4.32;;;2.20;;
43676;SDS011;29275;48.800;18.102;2023-04-25T17:36:55;5.13;;;2.70;;
43676;SDS011;29275;48.800;18.102;2023-04-25T17:39:58;2.80;;;2.00;;
43676;SDS011;29275;48.800;18.102;2023-04-25T17:43:02;4.38;;;2.80;;
43676;SDS011;29275;48.800;18.102;2023-04-25T17:46:05;2.55;;;1.58;;
43676;SDS011;29275;48.800;18.102;2023-04-25T17:49:08;3.38;;;1.85;;
43676;SDS011;29275;48.800;18.102;2023-04-25T17:52:11;2.33;;;1.55;;
43676;SDS011;29275;48.800;18.102;2023-04-25T17:55:14;2.72;;;2.00;;
43676;SDS011;29275;48.800;18.102;2023-04-25T17:58:17;4.78;;;1.90;;
43676;SDS011;29275;48.800;18.102;2023-04-25T18:01:20;3.88;;;2.05;;
43676;SDS011;29275;48.800;18.102;2023-04-25T18:04:23;3.20;;;1.80;;
43676;SDS011;29275;48.800;18.102;2023-04-25T18:07:26;3.83;;;1.45;;
43676;SDS011;29275;48.800;18.102;2023-04-25T18:10:29;2.95;;;2.00;;
43676;SDS011;29275;48.800;18.102;2023-04-25T18:13:32;3.85;;;2.25;;
43676;SDS011;29275;48.800;18.102;2023-04-25T18:16:35;4.70;;;1.90;;
43676;SDS011;29275;48.800;18.102;2023-04-25T18:19:38;2.75;;;1.95;;
43676;SDS011;29275;48.800;18.102;2023-04-25T18:22:44;4.53;;;2.25;;
43676;SDS011;29275;48.800;18.102;2023-04-25T18:25:47;4.93;;;2.45;;
43676;SDS011;29275;48.800;18.102;2023-04-25T18:28:53;4.70;;;3.35;;
43676;SDS011;29275;48.800;18.102;2023-04-25T18:31:56;4.07;;;2.90;;
43676;SDS011;29275;48.800;18.102;2023-04-25T18:35:02;6.53;;;2.75;;
43676;SDS011;29275;48.800;18.102;2023-04-25T18:38:05;4.03;;;2.85;;